sensor_id;sensor_type;location;lat;lon;timestamp;P1;durP1;ratioP1;P2;durP2;ratioP2
17814;SDS011;9031;50.974;11.330;2023-12-28T00:01:59;1.30;;;1.20;;
17814;SDS011;9031;50.974;11.330;2023-12-28T00:04:24;1.97;;;1.20;;
17814;SDS011;9031;50.974;11.330;2023-12-28T00:06:50;2.53;;;1.27;;
17814;SDS011;9031;50.974;11.330;2023-12-28T00:09:15;1.20;;;1.10;;
17814;SDS011;9031;50.974;11.330;2023-12-28T00:11:41;1.47;;;1.10;;
17814;SDS011;9031;50.974;11.330;2023-12-28T00:14:06;6.33;;;1.53;;
17814;SDS011;9031;50.974;11.330;2023-12-28T00:16:32;1.27;;;1.17;;
17814;SDS011;9031;50.974;11.330;2023-12-28T00:18:58;1.30;;;1.13;;
17814;SDS011;9031;50.974;11.330;2023-12-28T00:21:23;2.03;;;1.30;;
17814;SDS011;9031;50.974;11.330;2023-12-28T00:23:48;1.20;;;1.10;;
17814;SDS011;9031;50.974;11.330;2023-12-28T00:26:14;1.47;;;1.20;;
17814;SDS011;9031;50.974;11.330;2023-12-28T00:28:41;1.33;;;1.23;;
17814;SDS011;9031;50.974;11.330;2023-12-28T00:31:07;1.53;;;1.10;;
17814;SDS011;9031;50.974;11.330;2023-12-28T00:33:34;2.17;;;1.10;;
17814;SDS011;9031;50.974;11.330;2023-12-28T00:35:59;1.00;;;1.00;;
17814;SDS011;9031;50.974;11.330;2023-12-28T00:38:25;2.27;;;0.90;;
17814;SDS011;9031;50.974;11.330;2023-12-28T00:40:50;1.27;;;1.10;;
17814;SDS011;9031;50.974;11.330;2023-12-28T00:43:16;2.10;;;1.10;;
17814;SDS011;9031;50.974;11.330;2023-12-28T00:45:41;1.80;;;1.03;;
17814;SDS011;9031;50.974;11.330;2023-12-28T00:48:07;1.60;;;1.33;;
17814;SDS011;9031;50.974;11.330;2023-12-28T00:50:33;1.20;;;1.10;;
17814;SDS011;9031;50.974;11.330;2023-12-28T00:52:58;1.13;;;1.07;;
17814;SDS011;9031;50.974;11.330;2023-12-28T00:55:24;1.20;;;1.10;;
17814;SDS011;9031;50.974;11.330;2023-12-28T00:57:50;1.30;;;1.17;;
17814;SDS011;9031;50.974;11.330;2023-12-28T01:00:15;1.60;;;1.27;;
17814;SDS011;9031;50.974;11.330;2023-12-28T01:02:41;1.70;;;1.20;;
17814;SDS011;9031;50.974;11.330;2023-12-28T01:05:06;1.03;;;0.93;;
17814;SDS011;9031;50.974;11.330;2023-12-28T01:07:32;2.03;;;1.27;;
17814;SDS011;9031;50.974;11.330;2023-12-28T01:09:57;2.27;;;1.10;;
17814;SDS011;9031;50.974;11.330;2023-12-28T01:12:23;1.67;;;1.20;;
17814;SDS011;9031;50.974;11.330;2023-12-28T01:14:48;3.77;;;1.20;;
17814;SDS011;9031;50.974;11.330;2023-12-28T01:17:14;1.10;;;1.00;;
17814;SDS011;9031;50.974;11.330;2023-12-28T01:19:39;1.00;;;0.93;;
17814;SDS011;9031;50.974;11.330;2023-12-28T01:22:05;1.60;;;1.30;;
17814;SDS011;9031;50.974;11.330;2023-12-28T01:24:30;2.03;;;1.30;;
17814;SDS011;9031;50.974;11.330;2023-12-28T01:26:56;3.87;;;1.30;;
17814;SDS011;9031;50.974;11.330;2023-12-28T01:29:21;1.10;;;1.00;;
17814;SDS011;9031;50.974;11.330;2023-12-28T01:31:47;1.40;;;1.20;;
17814;SDS011;9031;50.974;11.330;2023-12-28T01:34:12;2.03;;;1.20;;
17814;SDS011;9031;50.974;11.330;2023-12-28T01:36:38;1.10;;;1.00;;
17814;SDS011;9031;50.974;11.330;2023-12-28T01:39:06;1.53;;;1.00;;
17814;SDS011;9031;50.974;11.330;2023-12-28T01:41:32;1.80;;;1.20;;
17814;SDS011;9031;50.974;11.330;2023-12-28T01:43:57;1.40;;;1.30;;
17814;SDS011;9031;50.974;11.330;2023-12-28T01:46:23;1.17;;;1.07;;
17814;SDS011;9031;50.974;11.330;2023-12-28T01:48:49;1.83;;;1.20;;
17814;SDS011;9031;50.974;11.330;2023-12-28T01:51:15;1.43;;;1.10;;
17814;SDS011;9031;50.974;11.330;2023-12-28T01:53:42;1.10;;;0.97;;
17814;SDS011;9031;50.974;11.330;2023-12-28T01:56:09;1.00;;;1.00;;
17814;SDS011;9031;50.974;11.330;2023-12-28T01:58:35;1.20;;;1.10;;
17814;SDS011;9031;50.974;11.330;2023-12-28T02:01:02;1.00;;;0.83;;
17814;SDS011;9031;50.974;11.330;2023-12-28T02:03:28;3.00;;;1.20;;
17814;SDS011;9031;50.974;11.330;2023-12-28T02:05:54;1.00;;;0.90;;
17814;SDS011;9031;50.974;11.330;2023-12-28T02:08:20;1.37;;;0.93;;
17814;SDS011;9031;50.974;11.330;2023-12-28T02:10:45;1.20;;;1.10;;
17814;SDS011;9031;50.974;11.330;2023-12-28T02:13:11;1.57;;;1.20;;
17814;SDS011;9031;50.974;11.330;2023-12-28T02:15:37;2.53;;;1.10;;
17814;SDS011;9031;50.974;11.330;2023-12-28T02:18:04;1.80;;;1.20;;
17814;SDS011;9031;50.974;11.330;2023-12-28T02:20:34;1.03;;;0.93;;
17814;SDS011;9031;50.974;11.330;2023-12-28T02:23:00;1.43;;;1.00;;
17814;SDS011;9031;50.974;11.330;2023-12-28T02:25:27;1.50;;;1.20;;
17814;SDS011;9031;50.974;11.330;2023-12-28T02:27:52;1.30;;;1.20;;
17814;SDS011;9031;50.974;11.330;2023-12-28T02:30:20;1.13;;;0.90;;
17814;SDS011;9031;50.974;11.330;2023-12-28T02:32:49;1.63;;;1.30;;
17814;SDS011;9031;50.974;11.330;2023-12-28T02:35:23;1.67;;;1.10;;
17814;SDS011;9031;50.974;11.330;2023-12-28T02:37:53;2.20;;;1.40;;
17814;SDS011;9031;50.974;11.330;2023-12-28T02:40:23;1.13;;;1.03;;
17814;SDS011;9031;50.974;11.330;2023-12-28T02:42:49;1.63;;;1.37;;
17814;SDS011;9031;50.974;11.330;2023-12-28T02:45:15;1.70;;;1.20;;
17814;SDS011;9031;50.974;11.330;2023-12-28T02:47:42;1.10;;;1.10;;
17814;SDS011;9031;50.974;11.330;2023-12-28T02:50:09;1.77;;;1.20;;
17814;SDS011;9031;50.974;11.330;2023-12-28T02:52:34;1.47;;;1.27;;
17814;SDS011;9031;50.974;11.330;2023-12-28T02:55:00;1.63;;;1.20;;
17814;SDS011;9031;50.974;11.330;2023-12-28T02:57:25;1.40;;;1.30;;
17814;SDS011;9031;50.974;11.330;2023-12-28T02:59:51;1.30;;;1.20;;
17814;SDS011;9031;50.974;11.330;2023-12-28T03:02:16;1.67;;;1.10;;
17814;SDS011;9031;50.974;11.330;2023-12-28T03:04:42;1.70;;;1.13;;
17814;SDS011;9031;50.974;11.330;2023-12-28T03:07:07;1.10;;;1.00;;
17814;SDS011;9031;50.974;11.330;2023-12-28T03:09:33;1.27;;;1.10;;
17814;SDS011;9031;50.974;11.330;2023-12-28T03:11:59;1.40;;;1.00;;
17814;SDS011;9031;50.974;11.330;2023-12-28T03:14:25;2.17;;;1.40;;
17814;SDS011;9031;50.974;11.330;2023-12-28T03:16:51;2.43;;;1.50;;
17814;SDS011;9031;50.974;11.330;2023-12-28T03:19:16;1.50;;;1.23;;
17814;SDS011;9031;50.974;11.330;2023-12-28T03:21:42;3.07;;;1.30;;
17814;SDS011;9031;50.974;11.330;2023-12-28T03:24:08;1.67;;;1.30;;
17814;SDS011;9031;50.974;11.330;2023-12-28T03:26:37;2.50;;;1.27;;
17814;SDS011;9031;50.974;11.330;2023-12-28T03:29:04;1.30;;;1.07;;
17814;SDS011;9031;50.974;11.330;2023-12-28T03:31:30;2.83;;;1.10;;
17814;SDS011;9031;50.974;11.330;2023-12-28T03:33:56;2.63;;;1.10;;
17814;SDS011;9031;50.974;11.330;2023-12-28T03:36:21;1.60;;;1.37;;
17814;SDS011;9031;50.974;11.330;2023-12-28T03:38:48;1.63;;;1.20;;
17814;SDS011;9031;50.974;11.330;2023-12-28T03:41:17;3.03;;;1.40;;
17814;SDS011;9031;50.974;11.330;2023-12-28T03:43:46;1.47;;;1.37;;
17814;SDS011;9031;50.974;11.330;2023-12-28T03:46:12;1.73;;;1.57;;
17814;SDS011;9031;50.974;11.330;2023-12-28T03:48:38;1.90;;;1.40;;
17814;SDS011;9031;50.974;11.330;2023-12-28T03:51:04;2.20;;;1.30;;
17814;SDS011;9031;50.974;11.330;2023-12-28T03:53:30;2.33;;;1.20;;
17814;SDS011;9031;50.974;11.330;2023-12-28T03:55:59;1.40;;;1.27;;
17814;SDS011;9031;50.974;11.330;2023-12-28T03:58:24;2.60;;;1.20;;
17814;SDS011;9031;50.974;11.330;2023-12-28T04:00:50;3.43;;;1.43;;
17814;SDS011;9031;50.974;11.330;2023-12-28T04:03:16;1.37;;;1.23;;
17814;SDS011;9031;50.974;11.330;2023-12-28T04:05:43;3.00;;;1.47;;
17814;SDS011;9031;50.974;11.330;2023-12-28T04:08:08;1.50;;;1.40;;
17814;SDS011;9031;50.974;11.330;2023-12-28T04:10:34;1.73;;;1.40;;
17814;SDS011;9031;50.974;11.330;2023-12-28T04:13:02;1.73;;;1.40;;
17814;SDS011;9031;50.974;11.330;2023-12-28T04:15:27;1.70;;;1.40;;
17814;SDS011;9031;50.974;11.330;2023-12-28T04:17:53;3.40;;;1.50;;
17814;SDS011;9031;50.974;11.330;2023-12-28T04:20:19;4.23;;;1.50;;
17814;SDS011;9031;50.974;11.330;2023-12-28T04:22:44;1.50;;;1.20;;
17814;SDS011;9031;50.974;11.330;2023-12-28T04:25:10;2.17;;;1.50;;
17814;SDS011;9031;50.974;11.330;2023-12-28T04:27:36;1.80;;;1.37;;
17814;SDS011;9031;50.974;11.330;2023-12-28T04:30:02;1.60;;;1.47;;
17814;SDS011;9031;50.974;11.330;2023-12-28T04:32:30;2.77;;;1.50;;
17814;SDS011;9031;50.974;11.330;2023-12-28T04:34:56;2.30;;;1.50;;
17814;SDS011;9031;50.974;11.330;2023-12-28T04:37:21;3.20;;;1.70;;
17814;SDS011;9031;50.974;11.330;2023-12-28T04:39:47;1.80;;;1.40;;
17814;SDS011;9031;50.974;11.330;2023-12-28T04:42:12;2.43;;;1.53;;
17814;SDS011;9031;50.974;11.330;2023-12-28T04:44:38;2.23;;;1.20;;
17814;SDS011;9031;50.974;11.330;2023-12-28T04:47:04;1.63;;;1.50;;
17814;SDS011;9031;50.974;11.330;2023-12-28T04:49:29;3.13;;;1.53;;
17814;SDS011;9031;50.974;11.330;2023-12-28T04:51:55;2.67;;;1.77;;
17814;SDS011;9031;50.974;11.330;2023-12-28T04:54:21;2.57;;;1.43;;
17814;SDS011;9031;50.974;11.330;2023-12-28T04:56:47;1.87;;;1.40;;
17814;SDS011;9031;50.974;11.330;2023-12-28T04:59:12;2.73;;;1.67;;
17814;SDS011;9031;50.974;11.330;2023-12-28T05:01:44;1.50;;;1.40;;
17814;SDS011;9031;50.974;11.330;2023-12-28T05:04:10;1.40;;;1.27;;
17814;SDS011;9031;50.974;11.330;2023-12-28T05:06:36;1.93;;;1.20;;
17814;SDS011;9031;50.974;11.330;2023-12-28T05:09:02;2.97;;;1.40;;
17814;SDS011;9031;50.974;11.330;2023-12-28T05:11:27;2.13;;;1.57;;
17814;SDS011;9031;50.974;11.330;2023-12-28T05:13:53;2.83;;;1.30;;
17814;SDS011;9031;50.974;11.330;2023-12-28T05:16:19;1.70;;;1.43;;
17814;SDS011;9031;50.974;11.330;2023-12-28T05:18:45;1.97;;;1.50;;
17814;SDS011;9031;50.974;11.330;2023-12-28T05:21:11;1.40;;;1.30;;
17814;SDS011;9031;50.974;11.330;2023-12-28T05:23:37;1.33;;;1.20;;
17814;SDS011;9031;50.974;11.330;2023-12-28T05:26:02;1.40;;;1.30;;
17814;SDS011;9031;50.974;11.330;2023-12-28T05:28:28;1.83;;;1.30;;
17814;SDS011;9031;50.974;11.330;2023-12-28T05:30:54;2.07;;;1.40;;
17814;SDS011;9031;50.974;11.330;2023-12-28T05:33:19;1.20;;;1.10;;
17814;SDS011;9031;50.974;11.330;2023-12-28T05:35:45;3.90;;;1.40;;
17814;SDS011;9031;50.974;11.330;2023-12-28T05:38:10;2.23;;;1.60;;
17814;SDS011;9031;50.974;11.330;2023-12-28T05:40:36;2.67;;;2.13;;
17814;SDS011;9031;50.974;11.330;2023-12-28T05:43:01;1.97;;;1.60;;
17814;SDS011;9031;50.974;11.330;2023-12-28T05:45:27;3.47;;;1.40;;
17814;SDS011;9031;50.974;11.330;2023-12-28T05:47:52;1.97;;;1.40;;
17814;SDS011;9031;50.974;11.330;2023-12-28T05:50:17;1.80;;;1.30;;
17814;SDS011;9031;50.974;11.330;2023-12-28T05:52:43;1.50;;;1.40;;
17814;SDS011;9031;50.974;11.330;2023-12-28T05:55:08;1.70;;;1.50;;
17814;SDS011;9031;50.974;11.330;2023-12-28T05:57:34;1.40;;;1.30;;
17814;SDS011;9031;50.974;11.330;2023-12-28T05:59:59;1.50;;;1.20;;
17814;SDS011;9031;50.974;11.330;2023-12-28T06:02:25;1.77;;;1.47;;
17814;SDS011;9031;50.974;11.330;2023-12-28T06:04:50;2.43;;;1.20;;
17814;SDS011;9031;50.974;11.330;2023-12-28T06:07:16;1.30;;;1.20;;
17814;SDS011;9031;50.974;11.330;2023-12-28T06:09:41;1.80;;;1.70;;
17814;SDS011;9031;50.974;11.330;2023-12-28T06:12:07;1.40;;;1.30;;
17814;SDS011;9031;50.974;11.330;2023-12-28T06:14:32;1.43;;;1.33;;
17814;SDS011;9031;50.974;11.330;2023-12-28T06:16:58;1.43;;;1.33;;
17814;SDS011;9031;50.974;11.330;2023-12-28T06:19:23;1.80;;;1.70;;
17814;SDS011;9031;50.974;11.330;2023-12-28T06:21:49;1.57;;;1.47;;
17814;SDS011;9031;50.974;11.330;2023-12-28T06:24:15;1.53;;;1.20;;
17814;SDS011;9031;50.974;11.330;2023-12-28T06:26:44;2.27;;;1.70;;
17814;SDS011;9031;50.974;11.330;2023-12-28T06:29:10;2.00;;;1.30;;
17814;SDS011;9031;50.974;11.330;2023-12-28T06:31:36;1.50;;;1.13;;
17814;SDS011;9031;50.974;11.330;2023-12-28T06:34:05;2.03;;;1.30;;
17814;SDS011;9031;50.974;11.330;2023-12-28T06:36:31;1.30;;;1.20;;
17814;SDS011;9031;50.974;11.330;2023-12-28T06:38:57;1.37;;;1.27;;
17814;SDS011;9031;50.974;11.330;2023-12-28T06:41:23;1.53;;;1.37;;
17814;SDS011;9031;50.974;11.330;2023-12-28T06:43:49;2.20;;;1.33;;
17814;SDS011;9031;50.974;11.330;2023-12-28T06:46:15;2.10;;;1.50;;
17814;SDS011;9031;50.974;11.330;2023-12-28T06:48:40;1.50;;;1.40;;
17814;SDS011;9031;50.974;11.330;2023-12-28T06:51:06;1.60;;;1.47;;
17814;SDS011;9031;50.974;11.330;2023-12-28T06:53:32;1.73;;;1.53;;
17814;SDS011;9031;50.974;11.330;2023-12-28T06:55:58;2.23;;;1.53;;
17814;SDS011;9031;50.974;11.330;2023-12-28T06:58:23;1.70;;;1.60;;
17814;SDS011;9031;50.974;11.330;2023-12-28T07:00:49;1.30;;;1.20;;
17814;SDS011;9031;50.974;11.330;2023-12-28T07:03:14;1.77;;;1.53;;
17814;SDS011;9031;50.974;11.330;2023-12-28T07:05:40;1.40;;;1.30;;
17814;SDS011;9031;50.974;11.330;2023-12-28T07:08:05;2.30;;;1.47;;
17814;SDS011;9031;50.974;11.330;2023-12-28T07:10:31;1.47;;;1.20;;
17814;SDS011;9031;50.974;11.330;2023-12-28T07:12:56;1.60;;;1.50;;
17814;SDS011;9031;50.974;11.330;2023-12-28T07:15:22;2.70;;;1.37;;
17814;SDS011;9031;50.974;11.330;2023-12-28T07:17:47;1.40;;;1.30;;
17814;SDS011;9031;50.974;11.330;2023-12-28T07:20:13;2.03;;;1.50;;
17814;SDS011;9031;50.974;11.330;2023-12-28T07:22:39;1.80;;;1.40;;
17814;SDS011;9031;50.974;11.330;2023-12-28T07:25:05;2.10;;;1.30;;
17814;SDS011;9031;50.974;11.330;2023-12-28T07:27:31;2.13;;;1.50;;
17814;SDS011;9031;50.974;11.330;2023-12-28T07:29:57;2.17;;;1.47;;
17814;SDS011;9031;50.974;11.330;2023-12-28T07:32:23;1.40;;;1.30;;
17814;SDS011;9031;50.974;11.330;2023-12-28T07:34:51;1.33;;;1.23;;
17814;SDS011;9031;50.974;11.330;2023-12-28T07:37:20;1.43;;;1.33;;
17814;SDS011;9031;50.974;11.330;2023-12-28T07:39:46;2.70;;;1.20;;
17814;SDS011;9031;50.974;11.330;2023-12-28T07:42:12;2.60;;;1.63;;
17814;SDS011;9031;50.974;11.330;2023-12-28T07:44:37;1.77;;;1.60;;
17814;SDS011;9031;50.974;11.330;2023-12-28T07:47:03;2.03;;;1.50;;
17814;SDS011;9031;50.974;11.330;2023-12-28T07:49:30;2.60;;;1.60;;
17814;SDS011;9031;50.974;11.330;2023-12-28T07:51:56;3.30;;;1.60;;
17814;SDS011;9031;50.974;11.330;2023-12-28T07:54:21;2.60;;;1.63;;
17814;SDS011;9031;50.974;11.330;2023-12-28T07:56:47;1.73;;;1.63;;
17814;SDS011;9031;50.974;11.330;2023-12-28T07:59:13;1.50;;;1.40;;
17814;SDS011;9031;50.974;11.330;2023-12-28T08:01:38;2.70;;;1.30;;
17814;SDS011;9031;50.974;11.330;2023-12-28T08:04:04;1.60;;;1.50;;
17814;SDS011;9031;50.974;11.330;2023-12-28T08:06:30;1.60;;;1.37;;
17814;SDS011;9031;50.974;11.330;2023-12-28T08:08:59;2.00;;;1.80;;
17814;SDS011;9031;50.974;11.330;2023-12-28T08:11:26;1.30;;;1.20;;
17814;SDS011;9031;50.974;11.330;2023-12-28T08:13:52;1.53;;;1.40;;
17814;SDS011;9031;50.974;11.330;2023-12-28T08:16:18;2.20;;;1.73;;
17814;SDS011;9031;50.974;11.330;2023-12-28T08:18:43;1.50;;;1.40;;
17814;SDS011;9031;50.974;11.330;2023-12-28T08:21:09;2.63;;;1.60;;
17814;SDS011;9031;50.974;11.330;2023-12-28T08:23:34;2.03;;;1.53;;
17814;SDS011;9031;50.974;11.330;2023-12-28T08:25:59;1.53;;;1.43;;
17814;SDS011;9031;50.974;11.330;2023-12-28T08:28:25;1.70;;;1.40;;
17814;SDS011;9031;50.974;11.330;2023-12-28T08:30:50;1.30;;;1.20;;
17814;SDS011;9031;50.974;11.330;2023-12-28T08:33:16;1.57;;;1.47;;
17814;SDS011;9031;50.974;11.330;2023-12-28T08:35:42;2.43;;;1.47;;
17814;SDS011;9031;50.974;11.330;2023-12-28T08:38:07;1.60;;;1.50;;
17814;SDS011;9031;50.974;11.330;2023-12-28T08:40:33;1.30;;;1.20;;
17814;SDS011;9031;50.974;11.330;2023-12-28T08:42:59;3.30;;;3.00;;
17814;SDS011;9031;50.974;11.330;2023-12-28T08:45:25;4.30;;;3.57;;
17814;SDS011;9031;50.974;11.330;2023-12-28T08:47:50;3.10;;;2.80;;
17814;SDS011;9031;50.974;11.330;2023-12-28T08:50:16;2.77;;;2.30;;
17814;SDS011;9031;50.974;11.330;2023-12-28T08:52:41;2.77;;;2.27;;
17814;SDS011;9031;50.974;11.330;2023-12-28T08:55:07;5.93;;;2.30;;
17814;SDS011;9031;50.974;11.330;2023-12-28T08:57:33;1.60;;;1.50;;
17814;SDS011;9031;50.974;11.330;2023-12-28T08:59:58;2.37;;;1.43;;
17814;SDS011;9031;50.974;11.330;2023-12-28T09:02:27;2.40;;;1.53;;
17814;SDS011;9031;50.974;11.330;2023-12-28T09:04:53;1.93;;;1.53;;
17814;SDS011;9031;50.974;11.330;2023-12-28T09:07:18;1.60;;;1.50;;
17814;SDS011;9031;50.974;11.330;2023-12-28T09:09:44;3.23;;;1.37;;
17814;SDS011;9031;50.974;11.330;2023-12-28T09:12:10;2.20;;;1.50;;
17814;SDS011;9031;50.974;11.330;2023-12-28T09:14:36;2.00;;;1.80;;
17814;SDS011;9031;50.974;11.330;2023-12-28T09:17:01;1.50;;;1.40;;
17814;SDS011;9031;50.974;11.330;2023-12-28T09:19:27;2.07;;;1.43;;
17814;SDS011;9031;50.974;11.330;2023-12-28T09:21:53;1.50;;;1.40;;
17814;SDS011;9031;50.974;11.330;2023-12-28T09:24:19;2.33;;;1.60;;
17814;SDS011;9031;50.974;11.330;2023-12-28T09:26:44;1.97;;;1.70;;
17814;SDS011;9031;50.974;11.330;2023-12-28T09:29:10;2.20;;;1.70;;
17814;SDS011;9031;50.974;11.330;2023-12-28T09:31:36;1.60;;;1.50;;
17814;SDS011;9031;50.974;11.330;2023-12-28T09:34:02;3.33;;;1.40;;
17814;SDS011;9031;50.974;11.330;2023-12-28T09:36:29;2.47;;;2.00;;
17814;SDS011;9031;50.974;11.330;2023-12-28T09:38:55;1.87;;;1.73;;
17814;SDS011;9031;50.974;11.330;2023-12-28T09:41:21;1.43;;;1.33;;
17814;SDS011;9031;50.974;11.330;2023-12-28T09:43:54;3.07;;;1.47;;
17814;SDS011;9031;50.974;11.330;2023-12-28T09:46:25;2.10;;;1.50;;
17814;SDS011;9031;50.974;11.330;2023-12-28T09:48:54;3.13;;;1.60;;
17814;SDS011;9031;50.974;11.330;2023-12-28T09:51:21;1.30;;;1.20;;
17814;SDS011;9031;50.974;11.330;2023-12-28T09:53:47;1.93;;;1.40;;
17814;SDS011;9031;50.974;11.330;2023-12-28T09:56:13;2.23;;;1.27;;
17814;SDS011;9031;50.974;11.330;2023-12-28T09:58:42;1.57;;;1.47;;
17814;SDS011;9031;50.974;11.330;2023-12-28T10:01:09;2.33;;;1.53;;
17814;SDS011;9031;50.974;11.330;2023-12-28T10:03:35;1.57;;;1.43;;
17814;SDS011;9031;50.974;11.330;2023-12-28T10:06:01;2.33;;;1.30;;
17814;SDS011;9031;50.974;11.330;2023-12-28T10:08:26;1.40;;;1.30;;
17814;SDS011;9031;50.974;11.330;2023-12-28T10:10:52;1.30;;;1.20;;
17814;SDS011;9031;50.974;11.330;2023-12-28T10:13:19;2.03;;;1.07;;
17814;SDS011;9031;50.974;11.330;2023-12-28T10:15:46;1.53;;;1.23;;
17814;SDS011;9031;50.974;11.330;2023-12-28T10:18:12;2.23;;;1.20;;
17814;SDS011;9031;50.974;11.330;2023-12-28T10:20:38;2.40;;;1.33;;
17814;SDS011;9031;50.974;11.330;2023-12-28T10:23:03;1.33;;;1.23;;
17814;SDS011;9031;50.974;11.330;2023-12-28T10:25:29;1.40;;;1.30;;
17814;SDS011;9031;50.974;11.330;2023-12-28T10:27:57;1.47;;;1.10;;
17814;SDS011;9031;50.974;11.330;2023-12-28T10:30:23;1.20;;;1.00;;
17814;SDS011;9031;50.974;11.330;2023-12-28T10:32:48;1.37;;;1.20;;
17814;SDS011;9031;50.974;11.330;2023-12-28T10:35:14;1.37;;;1.27;;
17814;SDS011;9031;50.974;11.330;2023-12-28T10:37:40;1.43;;;1.10;;
17814;SDS011;9031;50.974;11.330;2023-12-28T10:40:07;3.13;;;1.30;;
17814;SDS011;9031;50.974;11.330;2023-12-28T10:42:58;1.50;;;1.23;;
17814;SDS011;9031;50.974;11.330;2023-12-28T10:45:28;1.87;;;1.10;;
17814;SDS011;9031;50.974;11.330;2023-12-28T10:48:01;1.70;;;1.03;;
17814;SDS011;9031;50.974;11.330;2023-12-28T10:50:30;1.30;;;1.20;;
17814;SDS011;9031;50.974;11.330;2023-12-28T10:53:04;1.53;;;1.20;;
17814;SDS011;9031;50.974;11.330;2023-12-28T10:55:59;1.27;;;1.17;;
17814;SDS011;9031;50.974;11.330;2023-12-28T11:01:26;2.77;;;1.30;;
17814;SDS011;9031;50.974;11.330;2023-12-28T11:04:17;1.40;;;1.17;;
17814;SDS011;9031;50.974;11.330;2023-12-28T11:06:42;2.10;;;1.07;;
17814;SDS011;9031;50.974;11.330;2023-12-28T11:09:08;1.20;;;1.00;;
17814;SDS011;9031;50.974;11.330;2023-12-28T11:11:36;1.80;;;1.10;;
17814;SDS011;9031;50.974;11.330;2023-12-28T11:14:03;0.87;;;0.83;;
17814;SDS011;9031;50.974;11.330;2023-12-28T11:16:29;2.40;;;1.10;;
17814;SDS011;9031;50.974;11.330;2023-12-28T11:18:57;2.37;;;0.93;;
17814;SDS011;9031;50.974;11.330;2023-12-28T11:21:23;1.77;;;1.00;;
17814;SDS011;9031;50.974;11.330;2023-12-28T11:23:49;1.53;;;0.90;;
17814;SDS011;9031;50.974;11.330;2023-12-28T11:26:20;1.60;;;0.93;;
17814;SDS011;9031;50.974;11.330;2023-12-28T11:28:47;1.00;;;0.93;;
17814;SDS011;9031;50.974;11.330;2023-12-28T11:31:15;1.33;;;1.10;;
17814;SDS011;9031;50.974;11.330;2023-12-28T11:33:46;1.23;;;1.07;;
17814;SDS011;9031;50.974;11.330;2023-12-28T11:36:20;1.20;;;1.10;;
17814;SDS011;9031;50.974;11.330;2023-12-28T11:39:07;2.20;;;1.07;;
17814;SDS011;9031;50.974;11.330;2023-12-28T11:41:33;1.00;;;1.00;;
17814;SDS011;9031;50.974;11.330;2023-12-28T11:44:03;1.37;;;0.90;;
17814;SDS011;9031;50.974;11.330;2023-12-28T11:46:30;1.33;;;1.23;;
17814;SDS011;9031;50.974;11.330;2023-12-28T11:49:04;1.80;;;1.20;;
17814;SDS011;9031;50.974;11.330;2023-12-28T11:51:31;2.10;;;1.20;;
17814;SDS011;9031;50.974;11.330;2023-12-28T11:53:59;1.00;;;0.90;;
17814;SDS011;9031;50.974;11.330;2023-12-28T11:56:25;0.93;;;0.80;;
17814;SDS011;9031;50.974;11.330;2023-12-28T11:58:50;1.20;;;0.90;;
17814;SDS011;9031;50.974;11.330;2023-12-28T12:01:16;2.33;;;0.90;;
17814;SDS011;9031;50.974;11.330;2023-12-28T12:03:42;1.30;;;1.10;;
17814;SDS011;9031;50.974;11.330;2023-12-28T12:06:08;1.43;;;1.00;;
17814;SDS011;9031;50.974;11.330;2023-12-28T12:08:33;1.10;;;1.00;;
17814;SDS011;9031;50.974;11.330;2023-12-28T12:10:59;2.80;;;0.80;;
17814;SDS011;9031;50.974;11.330;2023-12-28T12:13:27;0.83;;;0.83;;
17814;SDS011;9031;50.974;11.330;2023-12-28T12:15:53;1.50;;;1.00;;
17814;SDS011;9031;50.974;11.330;2023-12-28T12:18:19;1.30;;;1.20;;
17814;SDS011;9031;50.974;11.330;2023-12-28T12:20:44;1.23;;;0.90;;
17814;SDS011;9031;50.974;11.330;2023-12-28T12:23:10;2.17;;;1.00;;
17814;SDS011;9031;50.974;11.330;2023-12-28T12:25:37;2.23;;;1.00;;
17814;SDS011;9031;50.974;11.330;2023-12-28T12:28:03;1.23;;;1.00;;
17814;SDS011;9031;50.974;11.330;2023-12-28T12:30:29;0.90;;;0.90;;
17814;SDS011;9031;50.974;11.330;2023-12-28T12:32:55;1.53;;;1.00;;
17814;SDS011;9031;50.974;11.330;2023-12-28T12:35:20;1.53;;;1.07;;
17814;SDS011;9031;50.974;11.330;2023-12-28T12:37:46;1.40;;;0.97;;
17814;SDS011;9031;50.974;11.330;2023-12-28T12:40:14;2.00;;;1.00;;
17814;SDS011;9031;50.974;11.330;2023-12-28T12:42:40;1.70;;;1.00;;
17814;SDS011;9031;50.974;11.330;2023-12-28T12:45:07;1.10;;;0.90;;
17814;SDS011;9031;50.974;11.330;2023-12-28T12:47:33;1.30;;;1.20;;
17814;SDS011;9031;50.974;11.330;2023-12-28T12:49:59;2.77;;;1.03;;
17814;SDS011;9031;50.974;11.330;2023-12-28T12:52:25;1.23;;;1.00;;
17814;SDS011;9031;50.974;11.330;2023-12-28T12:54:56;1.67;;;0.90;;
17814;SDS011;9031;50.974;11.330;2023-12-28T12:57:22;1.93;;;1.20;;
17814;SDS011;9031;50.974;11.330;2023-12-28T12:59:49;1.00;;;0.90;;
17814;SDS011;9031;50.974;11.330;2023-12-28T13:02:15;1.90;;;1.07;;
17814;SDS011;9031;50.974;11.330;2023-12-28T13:04:41;1.93;;;1.00;;
17814;SDS011;9031;50.974;11.330;2023-12-28T13:07:07;1.57;;;1.03;;
17814;SDS011;9031;50.974;11.330;2023-12-28T13:09:34;1.00;;;0.90;;
17814;SDS011;9031;50.974;11.330;2023-12-28T13:12:00;1.17;;;0.90;;
17814;SDS011;9031;50.974;11.330;2023-12-28T13:14:25;3.27;;;1.10;;
17814;SDS011;9031;50.974;11.330;2023-12-28T13:16:51;1.43;;;1.00;;
17814;SDS011;9031;50.974;11.330;2023-12-28T13:19:19;1.07;;;0.90;;
17814;SDS011;9031;50.974;11.330;2023-12-28T13:21:45;1.97;;;1.00;;
17814;SDS011;9031;50.974;11.330;2023-12-28T13:24:11;2.00;;;1.03;;
17814;SDS011;9031;50.974;11.330;2023-12-28T13:26:36;1.97;;;1.10;;
17814;SDS011;9031;50.974;11.330;2023-12-28T13:29:02;1.20;;;1.10;;
17814;SDS011;9031;50.974;11.330;2023-12-28T13:31:27;1.07;;;0.90;;
17814;SDS011;9031;50.974;11.330;2023-12-28T13:33:53;1.57;;;1.13;;
17814;SDS011;9031;50.974;11.330;2023-12-28T13:36:18;1.97;;;0.90;;
17814;SDS011;9031;50.974;11.330;2023-12-28T13:38:44;2.37;;;1.00;;
17814;SDS011;9031;50.974;11.330;2023-12-28T13:41:09;1.43;;;0.90;;
17814;SDS011;9031;50.974;11.330;2023-12-28T13:43:35;1.67;;;0.90;;
17814;SDS011;9031;50.974;11.330;2023-12-28T13:46:01;1.17;;;0.87;;
17814;SDS011;9031;50.974;11.330;2023-12-28T13:48:28;2.43;;;1.33;;
17814;SDS011;9031;50.974;11.330;2023-12-28T13:50:57;1.27;;;1.10;;
17814;SDS011;9031;50.974;11.330;2023-12-28T13:53:22;0.90;;;0.90;;
17814;SDS011;9031;50.974;11.330;2023-12-28T13:55:48;2.00;;;1.40;;
17814;SDS011;9031;50.974;11.330;2023-12-28T13:58:13;1.60;;;1.00;;
17814;SDS011;9031;50.974;11.330;2023-12-28T14:00:39;1.83;;;1.03;;
17814;SDS011;9031;50.974;11.330;2023-12-28T14:03:05;1.30;;;1.10;;
17814;SDS011;9031;50.974;11.330;2023-12-28T14:05:30;1.00;;;0.80;;
17814;SDS011;9031;50.974;11.330;2023-12-28T14:07:56;3.23;;;1.10;;
17814;SDS011;9031;50.974;11.330;2023-12-28T14:10:22;1.10;;;1.00;;
17814;SDS011;9031;50.974;11.330;2023-12-28T14:12:47;3.03;;;1.23;;
17814;SDS011;9031;50.974;11.330;2023-12-28T14:15:13;1.80;;;0.90;;
17814;SDS011;9031;50.974;11.330;2023-12-28T14:17:41;1.23;;;1.03;;
17814;SDS011;9031;50.974;11.330;2023-12-28T14:20:06;3.47;;;1.30;;
17814;SDS011;9031;50.974;11.330;2023-12-28T14:22:34;1.10;;;1.00;;
17814;SDS011;9031;50.974;11.330;2023-12-28T14:25:00;1.70;;;1.10;;
17814;SDS011;9031;50.974;11.330;2023-12-28T14:27:25;1.60;;;0.83;;
17814;SDS011;9031;50.974;11.330;2023-12-28T14:29:54;1.77;;;1.10;;
17814;SDS011;9031;50.974;11.330;2023-12-28T14:32:20;2.03;;;1.20;;
17814;SDS011;9031;50.974;11.330;2023-12-28T14:34:46;1.80;;;1.20;;
17814;SDS011;9031;50.974;11.330;2023-12-28T14:37:12;3.50;;;0.80;;
17814;SDS011;9031;50.974;11.330;2023-12-28T14:39:37;1.77;;;1.20;;
17814;SDS011;9031;50.974;11.330;2023-12-28T14:42:03;1.17;;;1.00;;
17814;SDS011;9031;50.974;11.330;2023-12-28T14:44:29;1.43;;;1.20;;
17814;SDS011;9031;50.974;11.330;2023-12-28T14:46:54;1.53;;;1.30;;